createdAt,value
2019-04-20T00:01:03.468Z,6.65
2019-04-20T00:02:13.727Z,7.65
2019-04-20T00:03:13.901Z,8.08
2019-04-20T00:04:23.435Z,6.78
2019-04-20T00:05:25.374Z,6.42
2019-04-20T00:06:32.618Z,7.28
2019-04-20T00:07:37.566Z,7.05
2019-04-20T00:08:43.126Z,6.22
2019-04-20T00:09:55.335Z,7.45
2019-04-20T00:11:02.621Z,6.90
2019-04-20T00:12:08.706Z,8.08
2019-04-20T00:13:16.369Z,7.25
2019-04-20T00:14:17.332Z,7.05
2019-04-20T00:15:19.733Z,7.37
2019-04-20T00:16:25.052Z,7.00
2019-04-20T00:17:30.525Z,6.80
2019-04-20T00:18:43.049Z,7.00
2019-04-20T00:19:47.013Z,6.55
2019-04-20T00:20:57.713Z,7.03
2019-04-20T00:22:06.218Z,7.67
2019-04-20T00:23:36.757Z,7.50
2019-04-20T00:24:49.647Z,7.20
2019-04-20T00:26:51.124Z,7.08
2019-04-20T00:27:50.245Z,7.62
2019-04-20T00:28:55.914Z,8.48
2019-04-20T00:30:03.329Z,7.95
2019-04-20T00:31:05.560Z,8.30
2019-04-20T00:32:06.252Z,8.10
2019-04-20T00:33:09.590Z,8.20
2019-04-20T00:34:16.841Z,7.83
2019-04-20T00:35:14.678Z,8.05
2019-04-20T00:36:20.152Z,8.00
2019-04-20T00:37:25.386Z,7.58
2019-04-20T00:38:35.190Z,7.87
2019-04-20T00:39:36.146Z,8.40
2019-04-20T00:40:41.294Z,7.70
2019-04-20T00:41:52.149Z,7.25
2019-04-20T00:42:55.054Z,8.08
2019-04-20T00:44:06.160Z,8.45
2019-04-20T00:45:15.391Z,7.92
2019-04-20T00:46:18.339Z,7.35
2019-04-20T00:47:30.991Z,7.67
2019-04-20T00:48:33.759Z,9.50
2019-04-20T00:49:41.356Z,8.20
2019-04-20T00:50:49.093Z,8.98
2019-04-20T00:52:00.488Z,8.00
2019-04-20T00:53:01.975Z,8.48
2019-04-20T00:53:55.262Z,8.23
2019-04-20T00:54:58.093Z,8.40
2019-04-20T00:56:03.420Z,8.50
2019-04-20T00:57:21.741Z,7.03
2019-04-20T00:58:20.080Z,8.43
2019-04-20T00:59:31.608Z,7.85
2019-04-20T01:00:40.714Z,7.72
2019-04-20T01:01:52.140Z,7.97
2019-04-20T01:02:53.064Z,7.97
2019-04-20T01:04:07.157Z,8.20
2019-04-20T01:05:10.966Z,8.20
2019-04-20T01:06:24.813Z,7.35
2019-04-20T01:07:32.878Z,7.80
2019-04-20T01:08:44.885Z,8.10
2019-04-20T01:10:04.722Z,7.80
2019-04-20T01:11:10.250Z,8.03
2019-04-20T01:12:21.030Z,7.67
2019-04-20T01:13:23.898Z,7.35
2019-04-20T01:14:36.122Z,7.80
2019-04-20T01:15:46.364Z,7.50
2019-04-20T01:16:47.274Z,6.95
2019-04-20T01:17:44.669Z,7.17
2019-04-20T01:18:48.819Z,7.83
2019-04-20T01:19:54.095Z,7.62
2019-04-20T01:21:06.550Z,7.58
2019-04-20T01:22:10.244Z,8.15
2019-04-20T01:23:14.352Z,7.00
2019-04-20T01:24:24.804Z,7.03
2019-04-20T01:25:29.969Z,7.17
2019-04-20T01:26:29.431Z,8.18
2019-04-20T01:27:51.536Z,7.55
2019-04-20T01:28:54.251Z,7.05
2019-04-20T01:29:50.935Z,7.08
2019-04-20T01:31:09.235Z,7.37
2019-04-20T01:32:14.281Z,7.10
2019-04-20T01:33:16.019Z,6.87
2019-04-20T01:34:26.604Z,7.15
2019-04-20T01:35:38.186Z,6.70
2019-04-20T01:36:40.674Z,6.83
2019-04-20T01:37:36.455Z,6.70
2019-04-20T01:38:47.288Z,8.10
2019-04-20T01:39:48.047Z,8.05
2019-04-20T01:40:46.588Z,7.30
2019-04-20T01:41:51.943Z,8.50
2019-04-20T01:42:57.279Z,7.62
2019-04-20T01:44:02.633Z,7.58
2019-04-20T01:45:14.505Z,8.08
2019-04-20T01:46:18.267Z,9.45
2019-04-20T01:47:19.128Z,9.70
2019-04-20T01:48:28.982Z,9.98
2019-04-20T01:49:33.258Z,9.65
2019-04-20T01:50:38.047Z,8.75
2019-04-20T01:51:53.612Z,10.48
2019-04-20T01:52:58.315Z,9.55
2019-04-20T01:54:15.866Z,8.65
2019-04-20T01:55:44.088Z,10.18
2019-04-20T01:56:43.788Z,8.80
2019-04-20T01:57:58.327Z,8.18
2019-04-20T01:59:30.927Z,8.35
2019-04-20T02:00:35.627Z,8.05
2019-04-20T02:02:03.181Z,8.00
2019-04-20T02:03:40.258Z,8.35
2019-04-20T02:05:06.129Z,9.20
2019-04-20T02:06:10.048Z,9.05
2019-04-20T02:07:11.856Z,7.85
2019-04-20T02:08:20.697Z,8.65
2019-04-20T02:09:25.692Z,9.10
2019-04-20T02:10:37.069Z,7.83
2019-04-20T02:11:38.202Z,8.25
2019-04-20T02:12:42.271Z,8.80
2019-04-20T02:13:52.585Z,8.83
2019-04-20T02:14:57.168Z,8.30
2019-04-20T02:16:05.989Z,7.62
2019-04-20T02:17:18.068Z,7.28
2019-04-20T02:18:22.779Z,7.45
2019-04-20T02:19:31.631Z,8.00
2019-04-20T02:20:44.573Z,8.28
2019-04-20T02:21:47.573Z,7.55
2019-04-20T02:22:51.783Z,7.12
2019-04-20T02:23:48.017Z,8.15
2019-04-20T02:24:46.796Z,7.95
2019-04-20T02:25:52.156Z,8.20
2019-04-20T02:26:57.826Z,7.45
2019-04-20T02:28:22.979Z,7.58
2019-04-20T02:29:30.651Z,8.00
2019-04-20T02:30:53.993Z,7.12
2019-04-20T02:32:08.509Z,7.37
2019-04-20T02:33:09.762Z,7.62
2019-04-20T02:34:29.235Z,7.72
2019-04-20T02:35:58.523Z,7.35
2019-04-20T02:36:58.273Z,8.13
2019-04-20T02:38:15.305Z,7.87
2019-04-20T02:40:47.486Z,9.60
2019-04-20T02:41:44.616Z,9.10
2019-04-20T02:45:17.485Z,8.05
2019-04-20T02:45:58.944Z,7.97
2019-04-20T02:47:19.442Z,7.95
2019-04-20T02:48:15.917Z,8.65
2019-04-20T02:49:33.693Z,8.28
2019-04-20T02:50:30.845Z,8.08
2019-04-20T02:54:06.342Z,7.37
2019-04-20T02:54:53.518Z,7.75
2019-04-20T02:56:19.290Z,7.17
2019-04-20T02:57:05.503Z,7.17
2019-04-20T02:58:07.740Z,7.58
2019-04-20T03:00:20.892Z,8.00
2019-04-20T03:01:36.898Z,7.83
2019-04-20T03:02:38.674Z,7.22
2019-04-20T03:03:37.640Z,6.90
2019-04-20T03:04:45.289Z,7.33
2019-04-20T03:05:58.302Z,6.40
2019-04-20T03:07:05.203Z,8.08
2019-04-20T03:08:13.695Z,7.05
2019-04-20T03:09:21.400Z,7.05
2019-04-20T03:10:39.691Z,8.43
2019-04-20T03:11:42.594Z,7.92
2019-04-20T03:12:39.052Z,7.75
2019-04-20T03:13:41.391Z,8.60
2019-04-20T03:14:47.823Z,8.23
2019-04-20T03:15:54.923Z,7.45
2019-04-20T03:17:03.190Z,8.10
2019-04-20T03:18:12.294Z,8.28
2019-04-20T03:19:12.968Z,7.83
2019-04-20T03:20:23.311Z,7.65
2019-04-20T03:21:35.926Z,8.18
2019-04-20T03:23:02.435Z,8.20
2019-04-20T03:23:50.097Z,8.30
2019-04-20T03:24:53.940Z,8.65
2019-04-20T03:26:11.011Z,7.08
2019-04-20T03:27:16.095Z,7.80
2019-04-20T03:28:25.934Z,7.92
2019-04-20T03:29:47.386Z,8.03
2019-04-20T03:31:47.013Z,8.05
2019-04-20T03:32:58.289Z,6.90
2019-04-20T03:33:41.373Z,7.78
2019-04-20T03:35:43.363Z,6.75
2019-04-20T03:36:50.035Z,6.80
2019-04-20T03:37:51.026Z,7.35
2019-04-20T03:38:54.965Z,7.70
2019-04-20T03:39:55.554Z,7.70
2019-04-20T03:40:59.208Z,7.00
2019-04-20T03:41:55.254Z,7.78
2019-04-20T03:42:59.117Z,7.25
2019-04-20T03:44:09.945Z,7.10
2019-04-20T03:45:15.021Z,8.23
2019-04-20T03:46:19.260Z,6.90
2019-04-20T03:47:30.438Z,7.33
2019-04-20T03:48:41.586Z,7.08
2019-04-20T03:50:14.799Z,8.33
2019-04-20T03:50:57.814Z,6.80
2019-04-20T03:52:24.621Z,6.75
2019-04-20T03:53:38.539Z,7.55
2019-04-20T03:54:39.430Z,7.65
2019-04-20T03:55:52.604Z,8.30
2019-04-20T03:57:32.491Z,7.37
2019-04-20T03:58:29.425Z,7.55
2019-04-20T03:59:55.096Z,7.95
2019-04-20T04:01:27.371Z,7.37
2019-04-20T04:02:50.127Z,8.13
2019-04-20T04:04:59.552Z,8.35
2019-04-20T04:06:07.847Z,8.18
2019-04-20T04:07:01.082Z,8.38
2019-04-20T04:08:15.900Z,8.20
2019-04-20T04:09:22.901Z,7.10
2019-04-20T04:10:28.267Z,7.30
2019-04-20T04:11:39.158Z,6.78
2019-04-20T04:13:03.558Z,7.75
2019-04-20T04:14:09.321Z,7.10
2019-04-20T04:15:14.707Z,6.60
2019-04-20T04:16:22.008Z,7.85
2019-04-20T04:17:31.891Z,8.63
2019-04-20T04:18:37.254Z,7.00
2019-04-20T04:19:40.238Z,7.83
2019-04-20T04:20:49.761Z,8.63
2019-04-20T04:22:03.960Z,7.30
2019-04-20T04:23:09.974Z,7.17
2019-04-20T04:24:12.848Z,7.97
2019-04-20T04:25:22.224Z,7.55
2019-04-20T04:26:30.613Z,7.95
2019-04-20T04:27:40.511Z,7.70
2019-04-20T04:28:40.968Z,7.87
2019-04-20T04:29:51.223Z,7.17
2019-04-20T04:30:59.446Z,7.00
2019-04-20T04:32:15.807Z,6.92
2019-04-20T04:33:32.637Z,6.75
2019-04-20T04:34:14.832Z,6.72
2019-04-20T04:35:16.631Z,6.62
2019-04-20T04:36:21.243Z,7.00
2019-04-20T04:37:32.479Z,7.95
2019-04-20T04:38:42.499Z,7.25
2019-04-20T04:39:48.567Z,7.17
2019-04-20T04:41:01.958Z,8.13
2019-04-20T04:42:07.409Z,8.93
2019-04-20T04:43:06.883Z,10.00
2019-04-20T04:44:09.953Z,6.87
2019-04-20T04:45:01.575Z,7.47
2019-04-20T04:46:01.783Z,8.15
2019-04-20T04:47:08.703Z,7.65
2019-04-20T04:48:14.667Z,7.40
2019-04-20T04:49:25.768Z,6.50
2019-04-20T04:50:27.872Z,6.70
2019-04-20T04:51:42.675Z,6.90
2019-04-20T04:52:47.833Z,6.90
2019-04-20T04:53:54.307Z,6.83
2019-04-20T04:54:58.731Z,6.55
2019-04-20T04:56:01.332Z,6.55
2019-04-20T04:57:01.013Z,6.85
2019-04-20T04:58:06.465Z,6.95
2019-04-20T04:59:10.931Z,7.65
2019-04-20T05:00:25.588Z,7.83
2019-04-20T05:01:28.856Z,6.50
2019-04-20T05:02:40.454Z,7.37
2019-04-20T05:04:03.275Z,6.55
2019-04-20T05:05:19.303Z,7.08
2019-04-20T05:06:29.214Z,8.05
2019-04-20T05:07:45.116Z,7.95
2019-04-20T05:08:41.971Z,8.28
2019-04-20T05:09:41.539Z,7.95
2019-04-20T05:10:47.881Z,7.40
2019-04-20T05:12:02.326Z,7.92
2019-04-20T05:12:58.801Z,6.35
2019-04-20T05:14:07.455Z,7.53
2019-04-20T05:15:22.346Z,6.95
2019-04-20T05:16:39.850Z,6.90
2019-04-20T05:17:48.002Z,6.95
2019-04-20T05:18:50.203Z,7.12
2019-04-20T05:19:52.621Z,6.35
2019-04-20T05:21:04.397Z,6.87
2019-04-20T05:22:14.908Z,7.95
2019-04-20T05:23:31.901Z,7.10
2019-04-20T05:24:54.737Z,7.28
2019-04-20T05:26:09.813Z,6.22
2019-04-20T05:27:33.518Z,7.70
2019-04-20T05:28:27.571Z,6.72
2019-04-20T05:29:25.381Z,7.05
2019-04-20T05:30:26.806Z,6.40
2019-04-20T05:31:41.420Z,7.50
2019-04-20T05:32:46.934Z,7.30
2019-04-20T05:34:08.532Z,7.10
2019-04-20T05:35:12.156Z,6.70
2019-04-20T05:36:12.735Z,7.25
2019-04-20T05:37:27.393Z,7.40
2019-04-20T05:38:38.242Z,7.25
2019-04-20T05:39:56.237Z,7.53
2019-04-20T05:40:39.020Z,7.50
2019-04-20T05:41:41.809Z,7.45
2019-04-20T05:42:54.474Z,7.03
2019-04-20T05:44:05.060Z,7.40
2019-04-20T05:45:11.496Z,6.85
2019-04-20T05:46:22.372Z,6.90
2019-04-20T05:47:29.193Z,7.03
2019-04-20T05:48:26.081Z,7.33
2019-04-20T05:49:34.580Z,8.05
2019-04-20T05:50:43.530Z,6.90
2019-04-20T05:51:48.683Z,7.92
2019-04-20T05:53:04.807Z,7.60
2019-04-20T05:54:02.642Z,6.80
2019-04-20T05:55:13.112Z,6.90
2019-04-20T05:56:08.429Z,6.50
2019-04-20T05:57:25.200Z,7.12
2019-04-20T05:58:27.656Z,7.60
2019-04-20T05:59:28.401Z,6.97
2019-04-20T06:00:44.032Z,7.78
2019-04-20T06:01:47.519Z,6.80
2019-04-20T06:02:51.417Z,6.40
2019-04-20T06:03:53.855Z,6.10
2019-04-20T06:05:05.658Z,6.20
2019-04-20T06:06:10.710Z,7.12
2019-04-20T06:07:15.543Z,7.03
2019-04-20T06:08:34.158Z,6.45
2019-04-20T06:09:27.569Z,6.67
2019-04-20T06:10:38.205Z,6.60
2019-04-20T06:11:44.479Z,6.55
2019-04-20T06:12:48.391Z,6.65
2019-04-20T06:14:03.700Z,6.90
2019-04-20T06:15:21.125Z,6.80
2019-04-20T06:16:41.003Z,6.00
2019-04-20T06:18:12.326Z,6.37
2019-04-20T06:20:33.400Z,6.10
2019-04-20T06:21:48.602Z,5.75
2019-04-20T06:22:51.342Z,6.28
2019-04-20T06:24:24.914Z,6.00
2019-04-20T06:25:53.197Z,5.58
2019-04-20T06:26:59.436Z,6.70
2019-04-20T06:28:01.006Z,6.00
2019-04-20T06:29:00.046Z,6.85
2019-04-20T06:30:05.927Z,6.17
2019-04-20T06:31:18.936Z,6.00
2019-04-20T06:32:28.853Z,6.20
2019-04-20T06:34:19.946Z,6.25
2019-04-20T06:35:25.922Z,6.65
2019-04-20T06:36:22.144Z,6.95
2019-04-20T06:37:23.424Z,5.90
2019-04-20T06:39:37.955Z,6.72
2019-04-20T06:42:08.389Z,6.00
2019-04-20T06:42:54.924Z,6.40
2019-04-20T06:44:02.590Z,6.00
2019-04-20T06:45:07.058Z,6.15
2019-04-20T06:46:15.207Z,6.12
2019-04-20T06:47:18.909Z,5.42
2019-04-20T06:48:33.034Z,5.65
2019-04-20T06:50:30.241Z,6.80
2019-04-20T06:51:47.487Z,6.58
2019-04-20T06:53:16.424Z,6.40
2019-04-20T06:54:12.439Z,5.55
2019-04-20T06:55:35.066Z,6.10
2019-04-20T06:56:42.567Z,6.78
2019-04-20T06:57:45.387Z,6.35
2019-04-20T06:58:49.839Z,6.95
2019-04-20T07:01:03.701Z,5.90
2019-04-20T07:02:18.694Z,6.17
2019-04-20T07:03:17.790Z,6.53
2019-04-20T07:04:38.937Z,5.90
2019-04-20T07:05:27.361Z,6.28
2019-04-20T07:07:45.463Z,6.30
2019-04-20T07:08:56.817Z,5.55
2019-04-20T07:09:59.824Z,8.25
2019-04-20T07:11:05.854Z,6.75
2019-04-20T07:12:02.915Z,6.67
2019-04-20T07:13:02.686Z,5.67
2019-04-20T07:14:02.910Z,6.62
2019-04-20T07:15:21.389Z,6.20
2019-04-20T07:16:55.747Z,6.35
2019-04-20T07:19:15.288Z,7.30
2019-04-20T07:20:51.631Z,5.75
2019-04-20T07:23:23.806Z,6.45
2019-04-20T07:24:28.713Z,5.83
2019-04-20T07:25:33.781Z,5.70
2019-04-20T07:26:41.731Z,5.97
2019-04-20T07:27:41.579Z,5.50
2019-04-20T07:28:53.601Z,5.58
2019-04-20T07:30:07.630Z,6.83
2019-04-20T07:31:01.759Z,5.40
2019-04-20T07:32:01.796Z,5.60
2019-04-20T07:33:17.264Z,6.20
2019-04-20T07:34:21.449Z,6.10
2019-04-20T07:35:25.047Z,5.70
2019-04-20T07:36:32.270Z,6.10
2019-04-20T07:38:03.032Z,5.50
2019-04-20T07:38:50.025Z,6.15
2019-04-20T07:39:55.774Z,6.28
2019-04-20T07:40:56.274Z,5.87
2019-04-20T07:42:08.489Z,5.80
2019-04-20T07:43:04.676Z,6.20
2019-04-20T07:44:24.531Z,5.83
2019-04-20T07:45:26.128Z,6.15
2019-04-20T07:46:40.716Z,5.37
2019-04-20T07:47:40.481Z,5.55
2019-04-20T07:48:39.565Z,5.70
2019-04-20T07:49:40.420Z,5.62
2019-04-20T07:50:46.231Z,5.90
2019-04-20T07:51:42.038Z,6.30
2019-04-20T07:52:54.138Z,6.20
2019-04-20T07:54:21.933Z,6.00
2019-04-20T07:56:28.418Z,5.60
2019-04-20T07:57:24.437Z,5.80
2019-04-20T07:58:25.259Z,5.33
2019-04-20T07:59:33.977Z,5.65
2019-04-20T08:00:55.223Z,6.10
2019-04-20T08:02:08.507Z,5.60
2019-04-20T08:03:29.383Z,4.58
2019-04-20T08:04:32.518Z,6.42
2019-04-20T08:05:41.855Z,4.90
2019-04-20T08:06:44.322Z,5.47
2019-04-20T08:07:54.087Z,5.70
2019-04-20T08:09:05.653Z,5.58
2019-04-20T08:09:57.427Z,5.20
2019-04-20T08:11:13.790Z,5.47
2019-04-20T08:12:34.032Z,5.37
2019-04-20T08:14:39.920Z,6.12
2019-04-20T08:16:58.733Z,5.83
2019-04-20T08:18:02.437Z,5.37
2019-04-20T08:19:01.405Z,4.95
2019-04-20T08:20:07.583Z,5.30
2019-04-20T08:21:16.695Z,5.00
2019-04-20T08:22:23.060Z,6.00
2019-04-20T08:23:40.275Z,5.97
2019-04-20T08:24:27.916Z,5.87
2019-04-20T08:25:33.114Z,5.70
2019-04-20T08:26:30.997Z,5.17
2019-04-20T08:27:47.239Z,5.65
2019-04-20T08:29:17.930Z,5.37
2019-04-20T08:30:37.804Z,5.35
2019-04-20T08:32:11.700Z,6.00
2019-04-20T08:33:23.172Z,5.42
2019-04-20T08:34:31.346Z,5.62
2019-04-20T08:35:46.410Z,5.58
2019-04-20T08:36:47.882Z,5.10
2019-04-20T08:38:12.278Z,5.75
2019-04-20T08:40:05.324Z,5.10
2019-04-20T08:41:02.857Z,5.70
2019-04-20T08:42:13.018Z,6.25
2019-04-20T08:43:33.623Z,5.35
2019-04-20T08:44:48.004Z,5.50
2019-04-20T08:45:34.923Z,5.30
2019-04-20T08:46:44.028Z,5.67
2019-04-20T08:48:07.747Z,5.37
2019-04-20T08:48:51.013Z,5.70
2019-04-20T08:50:29.943Z,5.45
2019-04-20T08:51:46.305Z,4.83
2019-04-20T08:53:03.787Z,6.37
2019-04-20T08:53:53.616Z,5.58
2019-04-20T08:54:58.048Z,5.08
2019-04-20T08:55:55.707Z,5.67
2019-04-20T08:56:53.687Z,5.05
2019-04-20T08:57:54.525Z,5.10
2019-04-20T08:58:59.620Z,5.47
2019-04-20T09:00:07.092Z,5.65
2019-04-20T09:01:18.433Z,5.20
2019-04-20T09:02:18.829Z,5.05
2019-04-20T09:03:30.149Z,5.45
2019-04-20T09:04:38.770Z,5.30
2019-04-20T09:05:48.970Z,5.10
2019-04-20T09:06:53.402Z,5.37
2019-04-20T09:08:00.585Z,4.90
2019-04-20T09:09:11.677Z,4.92
2019-04-20T09:10:25.675Z,5.15
2019-04-20T09:11:23.227Z,5.20
2019-04-20T09:12:33.226Z,4.75
2019-04-20T09:13:28.165Z,5.47
2019-04-20T09:14:25.589Z,5.10
2019-04-20T09:15:32.050Z,5.03
2019-04-20T09:16:45.642Z,4.50
2019-04-20T09:17:50.598Z,6.00
2019-04-20T09:19:00.013Z,4.92
2019-04-20T09:20:06.277Z,4.53
2019-04-20T09:21:15.173Z,4.75
2019-04-20T09:23:02.498Z,4.50
2019-04-20T09:24:22.860Z,4.75
2019-04-20T09:25:43.172Z,5.20
2019-04-20T09:26:25.083Z,5.22
2019-04-20T09:27:24.552Z,4.85
2019-04-20T09:28:35.445Z,5.03
2019-04-20T09:29:44.891Z,4.50
2019-04-20T09:30:57.185Z,5.05
2019-04-20T09:32:16.786Z,5.30
2019-04-20T09:33:41.798Z,5.30
2019-04-20T09:34:47.834Z,5.20
2019-04-20T09:35:50.823Z,5.15
2019-04-20T09:36:53.818Z,4.60
2019-04-20T09:38:11.323Z,5.33
2019-04-20T09:39:18.623Z,5.15
2019-04-20T09:40:43.467Z,5.20
2019-04-20T09:42:04.046Z,4.90
2019-04-20T09:43:02.748Z,6.78
2019-04-20T09:44:07.185Z,5.10
2019-04-20T09:45:20.036Z,4.70
2019-04-20T09:46:19.964Z,5.90
2019-04-20T09:47:32.676Z,4.90
2019-04-20T09:48:38.790Z,5.85
2019-04-20T09:49:49.612Z,6.00
2019-04-20T09:51:05.009Z,4.95
2019-04-20T09:52:01.444Z,5.45
2019-04-20T09:53:08.988Z,5.87
2019-04-20T09:54:18.878Z,6.25
2019-04-20T09:55:23.243Z,5.97
2019-04-20T09:56:28.136Z,5.65
2019-04-20T09:57:39.066Z,4.87
2019-04-20T09:58:45.418Z,5.85
2019-04-20T09:59:49.892Z,5.65
2019-04-20T10:00:59.516Z,4.58
2019-04-20T10:02:02.851Z,6.10
2019-04-20T10:02:58.314Z,6.58
2019-04-20T10:04:03.451Z,5.92
2019-04-20T10:05:09.338Z,5.70
2019-04-20T10:06:13.866Z,6.15
2019-04-20T10:07:23.441Z,5.15
2019-04-20T10:08:24.101Z,5.55
2019-04-20T10:09:34.674Z,6.58
2019-04-20T10:10:40.499Z,4.95
2019-04-20T10:11:43.430Z,6.03
2019-04-20T10:12:47.875Z,5.30
2019-04-20T10:13:52.360Z,5.22
2019-04-20T10:15:02.098Z,5.83
2019-04-20T10:16:03.821Z,5.25
2019-04-20T10:17:08.037Z,6.10
2019-04-20T10:18:12.339Z,5.10
2019-04-20T10:19:20.571Z,4.95
2019-04-20T10:20:29.684Z,5.33
2019-04-20T10:21:29.804Z,5.47
2019-04-20T10:22:34.365Z,4.60
2019-04-20T10:23:38.753Z,4.90
2019-04-20T10:24:45.793Z,5.00
2019-04-20T10:25:49.254Z,4.58
2019-04-20T10:26:54.570Z,4.22
2019-04-20T10:27:58.959Z,5.15
2019-04-20T10:29:03.580Z,4.60
2019-04-20T10:30:08.419Z,4.67
2019-04-20T10:31:12.806Z,6.15
2019-04-20T10:32:17.851Z,4.47
2019-04-20T10:33:23.775Z,4.90
2019-04-20T10:34:28.516Z,5.30
2019-04-20T10:35:33.828Z,5.53
2019-04-20T10:37:03.877Z,6.45
2019-04-20T10:38:13.753Z,5.15
2019-04-20T10:39:20.376Z,4.70
2019-04-20T10:40:37.799Z,5.90
2019-04-20T10:41:39.966Z,5.55
2019-04-20T10:42:38.234Z,5.10
2019-04-20T10:43:42.930Z,5.00
2019-04-20T10:44:48.287Z,5.05
2019-04-20T10:45:53.053Z,4.50
2019-04-20T10:46:58.681Z,4.55
2019-04-20T10:48:03.442Z,5.25
2019-04-20T10:49:09.509Z,5.83
2019-04-20T10:50:14.092Z,4.72
2019-04-20T10:51:19.742Z,4.60
2019-04-20T10:52:23.943Z,4.30
2019-04-20T10:53:28.083Z,4.85
2019-04-20T10:54:34.384Z,4.45
2019-04-20T10:55:39.721Z,4.40
2019-04-20T10:56:44.093Z,5.00
2019-04-20T10:57:49.317Z,4.40
2019-04-20T10:58:53.918Z,5.08
2019-04-20T10:59:59.539Z,4.58
2019-04-20T11:01:04.014Z,5.80
2019-04-20T11:02:08.291Z,5.25
2019-04-20T11:03:15.575Z,4.80
2019-04-20T11:04:20.911Z,5.12
2019-04-20T11:05:26.422Z,5.67
2019-04-20T11:06:30.774Z,5.17
2019-04-20T11:07:35.020Z,5.55
2019-04-20T11:08:40.263Z,4.30
2019-04-20T11:09:44.880Z,4.55
2019-04-20T11:11:00.286Z,5.70
2019-04-20T11:11:56.363Z,5.55
2019-04-20T11:13:01.241Z,8.10
2019-04-20T11:14:12.570Z,7.42
2019-04-20T11:15:12.525Z,5.53
2019-04-20T11:16:17.873Z,6.55
2019-04-20T11:17:22.515Z,6.95
2019-04-20T11:18:27.373Z,6.47
2019-04-20T11:19:31.767Z,6.40
2019-04-20T11:20:37.213Z,5.92
2019-04-20T11:21:41.637Z,5.83
2019-04-20T11:22:46.379Z,5.65
2019-04-20T11:23:52.024Z,6.55
2019-04-20T11:24:56.584Z,5.42
2019-04-20T11:26:02.147Z,5.60
2019-04-20T11:27:07.801Z,5.90
2019-04-20T11:28:12.422Z,6.22
2019-04-20T11:29:18.094Z,5.00
2019-04-20T11:30:22.556Z,5.12
2019-04-20T11:31:35.399Z,5.05
2019-04-20T11:32:33.869Z,4.00
2019-04-20T11:33:38.476Z,5.35
2019-04-20T11:34:43.732Z,4.97
2019-04-20T11:35:49.850Z,4.45
2019-04-20T11:36:55.069Z,4.50
2019-04-20T11:38:00.860Z,4.62
2019-04-20T11:39:09.115Z,5.58
2019-04-20T11:40:14.927Z,5.42
2019-04-20T11:41:25.591Z,5.30
2019-04-20T11:42:25.893Z,5.00
2019-04-20T11:43:31.414Z,5.47
2019-04-20T11:44:36.581Z,6.83
2019-04-20T11:45:42.624Z,7.33
2019-04-20T11:46:48.314Z,6.47
2019-04-20T11:47:53.768Z,6.85
2019-04-20T11:48:59.367Z,6.28
2019-04-20T11:50:04.426Z,6.17
2019-04-20T11:51:09.522Z,6.58
2019-04-20T11:52:16.882Z,6.47
2019-04-20T11:53:19.833Z,6.45
2019-04-20T11:54:24.381Z,6.17
2019-04-20T11:55:28.691Z,6.78
2019-04-20T11:56:37.951Z,6.20
2019-04-20T11:57:39.528Z,5.00
2019-04-20T11:58:44.880Z,6.08
2019-04-20T11:59:50.813Z,6.55
2019-04-20T12:01:03.179Z,5.70
2019-04-20T12:02:21.498Z,6.12
2019-04-20T12:03:31.117Z,5.15
2019-04-20T12:04:41.362Z,5.50
2019-04-20T12:05:44.494Z,5.45
2019-04-20T12:06:46.643Z,5.50
2019-04-20T12:07:56.479Z,5.58
2019-04-20T12:09:01.091Z,5.20
2019-04-20T12:10:12.089Z,4.72
2019-04-20T12:11:24.066Z,6.00
2019-04-20T12:12:29.347Z,4.40
2019-04-20T12:13:24.854Z,4.90
2019-04-20T12:14:30.452Z,6.28
2019-04-20T12:15:36.924Z,4.70
2019-04-20T12:16:41.647Z,4.80
2019-04-20T12:17:47.343Z,5.83
2019-04-20T12:18:52.497Z,5.83
2019-04-20T12:19:57.753Z,5.05
2019-04-20T12:21:03.036Z,5.00
2019-04-20T12:22:07.658Z,4.67
2019-04-20T12:23:12.686Z,4.42
2019-04-20T12:24:18.447Z,4.58
2019-04-20T12:25:23.721Z,4.45
2019-04-20T12:26:29.013Z,4.83
2019-04-20T12:27:34.498Z,5.00
2019-04-20T12:28:40.063Z,4.30
2019-04-20T12:29:45.699Z,4.70
2019-04-20T12:30:51.374Z,3.90
2019-04-20T12:31:59.177Z,3.92
2019-04-20T12:33:03.478Z,5.37
2019-04-20T12:34:08.602Z,4.22
2019-04-20T12:35:14.096Z,4.67
2019-04-20T12:36:18.450Z,4.65
2019-04-20T12:37:22.919Z,5.35
2019-04-20T12:38:27.456Z,5.78
2019-04-20T12:39:31.681Z,4.37
2019-04-20T12:40:35.935Z,5.60
2019-04-20T12:41:47.147Z,5.25
2019-04-20T12:42:46.649Z,4.70
2019-04-20T12:43:51.942Z,4.25
2019-04-20T12:44:57.683Z,4.10
2019-04-20T12:46:02.284Z,4.30
2019-04-20T12:47:07.763Z,4.47
2019-04-20T12:48:13.391Z,4.53
2019-04-20T12:49:18.022Z,4.25
2019-04-20T12:50:23.661Z,3.85
2019-04-20T12:51:33.868Z,4.90
2019-04-20T12:52:34.672Z,4.08
2019-04-20T12:53:40.475Z,3.77
2019-04-20T12:54:46.258Z,4.80
2019-04-20T12:55:51.033Z,5.10
2019-04-20T12:56:56.315Z,4.65
2019-04-20T12:58:00.694Z,4.65
2019-04-20T12:59:05.685Z,5.03
2019-04-20T13:00:11.822Z,4.97
2019-04-20T13:01:18.720Z,5.92
2019-04-20T13:02:23.178Z,5.87
2019-04-20T13:03:27.693Z,5.95
2019-04-20T13:04:33.257Z,5.55
2019-04-20T13:05:38.095Z,4.87
2019-04-20T13:06:42.980Z,5.35
2019-04-20T13:07:53.201Z,5.05
2019-04-20T13:08:57.313Z,4.70
2019-04-20T13:10:03.583Z,5.25
2019-04-20T13:11:12.895Z,4.72
2019-04-20T13:12:40.576Z,5.03
2019-04-20T13:14:14.524Z,5.05
2019-04-20T13:15:46.683Z,6.10
2019-04-20T13:16:52.297Z,4.80
2019-04-20T13:17:57.227Z,5.67
2019-04-20T13:19:03.730Z,5.80
2019-04-20T13:20:09.965Z,5.35
2019-04-20T13:21:14.386Z,5.40
2019-04-20T13:22:19.019Z,5.90
2019-04-20T13:23:24.521Z,6.03
2019-04-20T13:24:29.267Z,5.95
2019-04-20T13:25:34.720Z,6.08
2019-04-20T13:26:40.551Z,5.37
2019-04-20T13:27:45.091Z,5.95
2019-04-20T13:28:50.580Z,6.25
2019-04-20T13:29:55.960Z,5.28
2019-04-20T13:31:00.337Z,5.30
2019-04-20T13:32:05.473Z,5.10
2019-04-20T13:33:10.141Z,5.15
2019-04-20T13:34:15.138Z,5.50
2019-04-20T13:35:20.567Z,4.37
2019-04-20T13:36:26.136Z,4.83
2019-04-20T13:37:31.830Z,4.60
2019-04-20T13:38:36.300Z,4.28
2019-04-20T13:39:40.861Z,5.40
2019-04-20T13:40:45.926Z,4.10
2019-04-20T13:42:02.414Z,4.33
2019-04-20T13:42:56.266Z,3.70
2019-04-20T13:44:02.020Z,4.00
2019-04-20T13:45:08.793Z,4.55
2019-04-20T13:46:13.396Z,3.90
2019-04-20T13:47:19.052Z,3.67
2019-04-20T13:48:24.707Z,3.92
2019-04-20T13:49:29.195Z,5.30
2019-04-20T13:50:33.891Z,5.15
2019-04-20T13:51:39.073Z,4.50
2019-04-20T13:52:44.700Z,4.85
2019-04-20T13:53:48.993Z,5.30
2019-04-20T13:54:53.950Z,5.10
2019-04-20T13:55:59.216Z,4.95
2019-04-20T13:57:04.068Z,4.45
2019-04-20T13:58:31.571Z,4.60
2019-04-20T13:59:48.996Z,5.55
2019-04-20T14:01:10.310Z,4.40
2019-04-20T14:02:28.882Z,6.17
2019-04-20T14:03:34.510Z,5.97
2019-04-20T14:04:48.705Z,4.75
2019-04-20T14:05:53.151Z,4.60
2019-04-20T14:06:59.483Z,3.90
2019-04-20T14:08:07.456Z,4.40
2019-04-20T14:09:12.579Z,5.17
2019-04-20T14:10:17.486Z,5.20
2019-04-20T14:11:23.120Z,4.83
2019-04-20T14:12:34.940Z,3.95
2019-04-20T14:13:40.369Z,4.25
2019-04-20T14:14:41.264Z,3.95
2019-04-20T14:15:47.035Z,3.85
2019-04-20T14:16:52.837Z,4.67
2019-04-20T14:17:57.328Z,4.60
2019-04-20T14:19:02.894Z,3.75
2019-04-20T14:20:13.211Z,3.72
2019-04-20T14:21:14.248Z,4.10
2019-04-20T14:22:18.838Z,5.35
2019-04-20T14:23:23.278Z,4.78
2019-04-20T14:24:28.912Z,6.10
2019-04-20T14:25:33.327Z,5.28
2019-04-20T14:26:40.351Z,4.20
2019-04-20T14:27:44.632Z,4.22
2019-04-20T14:28:49.198Z,3.85
2019-04-20T14:29:55.018Z,3.95
2019-04-20T14:30:59.479Z,3.72
2019-04-20T14:32:05.495Z,3.95
2019-04-20T14:33:10.607Z,3.95
2019-04-20T14:34:15.216Z,3.58
2019-04-20T14:35:20.719Z,4.15
2019-04-20T14:36:26.476Z,4.05
2019-04-20T14:37:30.990Z,4.30
2019-04-20T14:38:36.185Z,4.55
2019-04-20T14:39:40.630Z,4.85
2019-04-20T14:40:46.204Z,5.30
2019-04-20T14:41:51.916Z,3.90
2019-04-20T14:42:57.286Z,4.15
2019-04-20T14:44:03.727Z,4.42
2019-04-20T14:45:08.904Z,4.10
2019-04-20T14:46:14.597Z,4.78
2019-04-20T14:47:19.317Z,4.55
2019-04-20T14:48:24.900Z,3.67
2019-04-20T14:49:30.532Z,4.03
2019-04-20T14:50:35.890Z,4.05
2019-04-20T14:51:41.581Z,3.40
2019-04-20T14:52:47.181Z,4.10
2019-04-20T14:53:51.969Z,3.62
2019-04-20T14:54:57.462Z,3.60
2019-04-20T14:56:02.239Z,4.25
2019-04-20T14:57:07.705Z,4.55
2019-04-20T14:58:31.469Z,4.70
2019-04-20T14:59:39.584Z,3.62
2019-04-20T15:00:53.103Z,3.55
2019-04-20T15:02:00.704Z,3.95
2019-04-20T15:03:23.973Z,4.05
2019-04-20T15:04:30.737Z,4.92
2019-04-20T15:05:35.267Z,3.83
2019-04-20T15:06:40.030Z,4.30
2019-04-20T15:07:44.767Z,3.80
2019-04-20T15:08:50.378Z,3.95
2019-04-20T15:09:55.197Z,3.65
2019-04-20T15:11:00.893Z,3.30
2019-04-20T15:12:06.767Z,3.80
2019-04-20T15:13:12.955Z,3.60
2019-04-20T15:14:18.694Z,3.30
2019-04-20T15:15:23.050Z,4.47
2019-04-20T15:16:28.470Z,4.00
2019-04-20T15:17:41.856Z,3.72
2019-04-20T15:18:51.872Z,3.90
2019-04-20T15:20:03.385Z,4.78
2019-04-20T15:21:09.350Z,4.55
2019-04-20T15:22:29.856Z,5.10